Susquehanna, Pennsylvania
Current Conditions -  °F | °C
As of 12:32 AM on Friday 28 Nov 2014 (Local Time) from KBGM Reporting Station
Overcast Overcast  
Wind Chill: 17°   Ceiling: 6000
Heat Index: 24°   Visibility: 10mi
Dew Point: 21°   Wind: 6mph
Humidity: 88%   Direction: 270°W
Pressure: 29.99"   Gusts: NA
Location:  41.94°N, 75.6°W
Report Text: KBGM 280532Z AUTO 27005KT 10SM FEW016 BKN060 OVC080 M04/M06 A2999 RMK AO2 T10441061 $
Loading
Personal Weather Stations






























Interactive Weather Map New forecast layout! Learn more

10-Day Weather Forecast

Advertisements
Track Severe Weather on mobile